Time,TemperatureF,DewpointF,PressureIn,WindDirection,WindDirectionDegrees,WindSpeedMPH,WindSpeedGustMPH,Humidity,HourlyPrecipIn,Conditions,Clouds,dailyrainin,SoftwareType,DateUTC
2013-12-07 00:01:00,19.2,-2.2,30.00,South,185,0.0,0.0,38,0.00,,---,0.00,VWS V14.01,2013-12-07 05:01:00,
2013-12-07 00:02:00,19.2,-2.2,30.00,South,185,0.0,0.0,38,0.00,,---,0.00,VWS V14.01,2013-12-07 05:02:00,
2013-12-07 00:03:00,19.2,-2.2,30.00,South,185,0.0,0.0,38,0.00,,---,0.00,VWS V14.01,2013-12-07 05:03:00,
2013-12-07 00:04:00,19.2,-2.2,30.00,South,185,0.0,0.0,38,0.00,,---,0.00,VWS V14.01,2013-12-07 05:04:00,
2013-12-07 00:07:00,20.5,7.3,30.00,West,271,2.2,3.6,56,0.00,,---,0.00,VWS V14.01,2013-12-07 05:07:00,
2013-12-07 00:12:00,21.0,8.9,30.00,South,170,0.0,0.0,59,0.00,,---,0.00,VWS V14.01,2013-12-07 05:12:00,
2013-12-07 00:17:00,19.8,1.4,30.00,South,170,0.0,0.0,44,0.00,,---,0.00,VWS V14.01,2013-12-07 05:17:00,
2013-12-07 00:23:00,19.4,-1.5,30.00,South,170,0.0,0.0,39,0.00,,---,0.00,VWS V14.01,2013-12-07 05:23:00,
2013-12-07 00:28:00,19.0,-1.8,30.00,South,170,0.0,0.0,39,0.00,,---,0.00,VWS V14.01,2013-12-07 05:28:00,
2013-12-07 00:34:00,18.9,-1.5,30.00,SSW,211,0.0,0.0,40,0.00,,---,0.00,VWS V14.01,2013-12-07 05:34:00,
2013-12-07 00:40:00,19.0,0.2,30.00,SW,220,0.0,0.0,43,0.00,,---,0.00,VWS V14.01,2013-12-07 05:40:00,
2013-12-07 00:45:00,19.0,0.2,30.00,SW,224,0.0,2.2,43,0.00,,---,0.00,VWS V14.01,2013-12-07 05:45:00,
2013-12-07 00:50:00,19.0,-1.8,30.00,SW,215,0.0,0.0,39,0.00,,---,0.00,VWS V14.01,2013-12-07 05:50:00,
2013-12-07 00:56:00,19.4,0.6,30.00,SSW,199,0.0,0.0,43,0.00,,---,0.00,VWS V14.01,2013-12-07 05:56:00,
2013-12-07 01:02:00,21.9,13.6,30.00,SSW,198,0.0,2.7,70,0.00,,---,0.00,VWS V14.01,2013-12-07 06:02:00,
2013-12-07 01:07:00,21.4,10.8,30.00,South,188,2.7,2.7,63,0.00,,---,0.00,VWS V14.01,2013-12-07 06:07:00,
2013-12-07 01:13:00,21.4,10.8,30.00,SSW,205,0.0,0.0,63,0.00,,---,0.00,VWS V14.01,2013-12-07 06:13:00,
2013-12-07 01:19:00,20.1,-0.3,30.00,South,178,0.0,0.0,40,0.00,,---,0.00,VWS V14.01,2013-12-07 06:19:00,
2013-12-07 01:24:00,20.1,-0.3,30.00,SW,218,0.0,0.0,40,0.00,,---,0.00,VWS V14.01,2013-12-07 06:24:00,
2013-12-07 01:29:00,20.1,-1.4,30.00,WSW,240,0.0,2.2,38,0.00,,---,0.00,VWS V14.01,2013-12-07 06:29:00,
2013-12-07 01:34:00,20.3,0.9,30.00,WSW,243,0.0,2.7,42,0.00,,---,0.00,VWS V14.01,2013-12-07 06:34:00,
2013-12-07 01:40:00,20.3,-0.7,30.00,SW,226,0.0,0.0,39,0.00,,---,0.00,VWS V14.01,2013-12-07 06:40:00,
2013-12-07 01:45:00,20.1,-2.0,30.00,WSW,257,0.0,0.0,37,0.00,,---,0.00,VWS V14.01,2013-12-07 06:45:00,
2013-12-07 01:50:00,21.2,3.2,30.00,SE,135,2.7,2.7,45,0.00,,---,0.00,VWS V14.01,2013-12-07 06:50:00,
2013-12-07 01:55:00,21.2,3.7,30.00,SW,219,4.0,4.0,46,0.00,,---,0.00,VWS V14.01,2013-12-07 06:55:00,
2013-12-07 02:01:00,20.1,-4.4,30.00,WSW,248,2.2,2.7,33,0.00,,---,0.00,VWS V14.01,2013-12-07 07:01:00,
2013-12-07 02:06:00,19.8,-4.7,30.00,WSW,245,2.2,2.7,33,0.00,,---,0.00,VWS V14.01,2013-12-07 07:06:00,
2013-12-07 02:12:00,19.6,-4.8,30.00,WSW,245,2.7,2.7,33,0.00,,---,0.00,VWS V14.01,2013-12-07 07:12:00,
2013-12-07 02:18:00,19.6,-4.8,30.00,SSW,198,0.0,0.0,33,0.00,,---,0.00,VWS V14.01,2013-12-07 07:18:00,
2013-12-07 02:23:00,19.6,-4.8,30.03,WSW,242,2.7,2.7,33,0.00,,---,0.00,VWS V14.01,2013-12-07 07:23:00,
2013-12-07 02:29:00,19.4,-5.0,30.03,West,261,2.2,2.2,33,0.00,,---,0.00,VWS V14.01,2013-12-07 07:29:00,
2013-12-07 02:34:00,19.2,-5.2,30.03,NW,307,2.2,2.2,33,0.00,,---,0.00,VWS V14.01,2013-12-07 07:34:00,
2013-12-07 02:40:00,20.5,3.0,30.03,WSW,245,0.0,0.0,46,0.00,,---,0.00,VWS V14.01,2013-12-07 07:40:00,
2013-12-07 02:46:00,20.5,3.0,30.03,SW,232,3.6,3.6,46,0.00,,---,0.00,VWS V14.01,2013-12-07 07:46:00,
2013-12-07 02:51:00,19.0,-7.3,30.03,SSE,156,0.0,2.2,30,0.00,,---,0.00,VWS V14.01,2013-12-07 07:51:00,
2013-12-07 02:56:00,18.5,-5.8,30.03,WSW,242,0.0,0.0,33,0.00,,---,0.00,VWS V14.01,2013-12-07 07:56:00,
2013-12-07 03:01:00,18.3,-7.9,30.03,SW,232,0.0,2.2,30,0.00,,---,0.00,VWS V14.01,2013-12-07 08:01:00,
2013-12-07 03:06:00,18.3,-7.9,30.03,SSW,206,3.1,3.1,30,0.00,,---,0.00,VWS V14.01,2013-12-07 08:06:00,
2013-12-07 03:12:00,18.1,-5.5,30.03,SW,228,0.0,0.0,34,0.00,,---,0.00,VWS V14.01,2013-12-07 08:12:00,
2013-12-07 03:17:00,17.8,-6.4,30.06,WSW,237,2.7,2.7,33,0.00,,---,0.00,VWS V14.01,2013-12-07 08:17:00,
2013-12-07 03:22:00,17.8,-5.8,30.06,South,186,0.0,2.2,34,0.00,,---,0.00,VWS V14.01,2013-12-07 08:22:00,
2013-12-07 03:27:00,19.8,7.8,30.03,SSW,201,0.0,0.0,59,0.00,,---,0.00,VWS V14.01,2013-12-07 08:27:00,
2013-12-07 03:33:00,19.2,3.2,30.03,SSW,206,0.0,0.0,49,0.00,,---,0.00,VWS V14.01,2013-12-07 08:33:00,
2013-12-07 03:39:00,18.0,-5.7,30.03,SW,227,0.0,0.0,34,0.00,,---,0.00,VWS V14.01,2013-12-07 08:39:00,
2013-12-07 03:44:00,17.6,-6.0,30.06,SW,227,0.0,0.0,34,0.00,,---,0.00,VWS V14.01,2013-12-07 08:44:00,
2013-12-07 03:49:00,17.2,-5.7,30.06,SW,217,0.0,3.1,35,0.00,,---,0.00,VWS V14.01,2013-12-07 08:49:00,
2013-12-07 03:54:00,17.2,-5.7,30.06,SSW,206,2.2,2.2,35,0.00,,---,0.00,VWS V14.01,2013-12-07 08:54:00,
2013-12-07 04:00:00,16.9,-6.6,30.03,South,187,0.0,0.0,34,0.00,,---,0.00,VWS V14.01,2013-12-07 09:00:00,
2013-12-07 04:05:00,16.7,-6.8,30.03,West,265,0.0,2.2,34,0.00,,---,0.00,VWS V14.01,2013-12-07 09:05:00,
2013-12-07 04:10:00,16.7,-6.2,30.03,SSW,205,0.0,0.0,35,0.00,,---,0.00,VWS V14.01,2013-12-07 09:10:00,
2013-12-07 04:15:00,18.1,4.7,30.03,SSW,211,0.0,0.0,55,0.00,,---,0.00,VWS V14.01,2013-12-07 09:15:00,
2013-12-07 04:21:00,17.6,1.7,30.03,SE,145,0.0,0.0,49,0.00,,---,0.00,VWS V14.01,2013-12-07 09:21:00,
2013-12-07 04:26:00,16.9,-6.0,30.03,SE,145,0.0,0.0,35,0.00,,---,0.00,VWS V14.01,2013-12-07 09:26:00,
2013-12-07 04:32:00,16.5,-6.3,30.03,SSW,209,0.0,0.0,35,0.00,,---,0.00,VWS V14.01,2013-12-07 09:32:00,
2013-12-07 04:38:00,16.5,-6.3,30.06,SSW,204,0.0,0.0,35,0.00,,---,0.00,VWS V14.01,2013-12-07 09:38:00,
2013-12-07 04:43:00,16.2,-6.7,30.06,SSW,198,0.0,0.0,35,0.00,,---,0.00,VWS V14.01,2013-12-07 09:43:00,
2013-12-07 04:49:00,16.0,-6.2,30.06,SSW,198,0.0,0.0,36,0.00,,---,0.00,VWS V14.01,2013-12-07 09:49:00,
2013-12-07 04:54:00,16.3,-3.2,30.06,SSW,198,0.0,0.0,41,0.00,,---,0.00,VWS V14.01,2013-12-07 09:54:00,
2013-12-07 05:00:00,17.4,3.6,30.06,SW,214,0.0,0.0,54,0.00,,---,0.00,VWS V14.01,2013-12-07 10:00:00,
2013-12-07 05:06:00,17.1,2.1,30.06,SW,218,0.0,0.0,51,0.00,,---,0.00,VWS V14.01,2013-12-07 10:06:00,
2013-12-07 05:11:00,16.9,-4.3,30.06,SW,236,0.0,0.0,38,0.00,,---,0.00,VWS V14.01,2013-12-07 10:11:00,
2013-12-07 05:16:00,16.7,-5.6,30.06,SW,235,0.0,0.0,36,0.00,,---,0.00,VWS V14.01,2013-12-07 10:16:00,
2013-12-07 05:21:00,16.9,-5.4,30.06,West,270,0.0,0.0,36,0.00,,---,0.00,VWS V14.01,2013-12-07 10:21:00,
2013-12-07 05:27:00,17.1,-5.9,30.06,SW,214,0.0,0.0,35,0.00,,---,0.00,VWS V14.01,2013-12-07 10:27:00,
2013-12-07 05:32:00,17.2,-5.7,30.06,SW,228,2.7,2.7,35,0.00,,---,0.00,VWS V14.01,2013-12-07 10:32:00,
2013-12-07 05:38:00,18.3,1.9,30.06,SSW,213,0.0,0.0,48,0.00,,---,0.00,VWS V14.01,2013-12-07 10:38:00,
2013-12-07 05:43:00,19.6,8.3,30.06,SW,227,2.2,2.2,61,0.00,,---,0.00,VWS V14.01,2013-12-07 10:43:00,
2013-12-07 05:48:00,19.2,6.1,30.06,SSW,213,0.0,0.0,56,0.00,,---,0.00,VWS V14.01,2013-12-07 10:48:00,
2013-12-07 05:53:00,19.2,6.1,30.06,SW,222,0.0,0.0,56,0.00,,---,0.00,VWS V14.01,2013-12-07 10:53:00,
2013-12-07 05:59:00,19.9,6.0,30.06,WSW,256,0.0,0.0,54,0.00,,---,0.00,VWS V14.01,2013-12-07 10:59:00,
2013-12-07 06:04:00,22.1,17.2,30.06,SSW,202,0.0,0.0,81,0.00,,---,0.00,VWS V14.01,2013-12-07 11:04:00,
2013-12-07 06:09:00,21.9,12.3,30.09,WSW,250,0.0,0.0,66,0.00,,---,0.00,VWS V14.01,2013-12-07 11:09:00,
2013-12-07 06:14:00,21.6,11.3,30.09,WSW,241,0.0,0.0,64,0.00,,---,0.00,VWS V14.01,2013-12-07 11:14:00,
2013-12-07 06:20:00,21.6,11.3,30.09,SSW,205,0.0,0.0,64,0.00,,---,0.00,VWS V14.01,2013-12-07 11:20:00,
2013-12-07 06:25:00,19.2,-5.2,30.09,NW,325,0.0,0.0,33,0.00,,---,0.00,VWS V14.01,2013-12-07 11:25:00,
2013-12-07 06:31:00,18.9,-4.9,30.09,West,261,0.0,2.2,34,0.00,,---,0.00,VWS V14.01,2013-12-07 11:31:00,
2013-12-07 06:36:00,19.0,-4.7,30.09,West,261,0.0,0.0,34,0.00,,---,0.00,VWS V14.01,2013-12-07 11:36:00,
2013-12-07 06:42:00,19.0,-5.3,30.09,SSW,210,0.0,0.0,33,0.00,,---,0.00,VWS V14.01,2013-12-07 11:42:00,
2013-12-07 06:47:00,19.2,-5.2,30.09,SW,235,0.0,0.0,33,0.00,,---,0.00,VWS V14.01,2013-12-07 11:47:00,
2013-12-07 06:52:00,19.2,-4.5,30.09,SW,233,0.0,0.0,34,0.00,,---,0.00,VWS V14.01,2013-12-07 11:52:00,
2013-12-07 06:58:00,19.4,-4.4,30.09,WNW,289,2.7,2.7,34,0.00,,---,0.00,VWS V14.01,2013-12-07 11:58:00,
2013-12-07 07:03:00,19.4,-3.8,30.09,WSW,256,0.0,0.0,35,0.00,,---,0.00,VWS V14.01,2013-12-07 12:03:00,
2013-12-07 07:09:00,19.4,-0.4,30.09,SW,222,2.7,2.7,41,0.00,,---,0.00,VWS V14.01,2013-12-07 12:09:00,
2013-12-07 07:14:00,19.2,-1.1,30.09,South,180,0.0,0.0,40,0.00,,---,0.00,VWS V14.01,2013-12-07 12:14:00,
2013-12-07 07:20:00,19.8,5.8,30.09,SW,236,0.0,0.0,54,0.00,,---,0.00,VWS V14.01,2013-12-07 12:20:00,
2013-12-07 07:26:00,19.2,0.4,30.09,West,270,4.9,4.9,43,0.00,,---,0.00,VWS V14.01,2013-12-07 12:26:00,
2013-12-07 07:31:00,18.7,-2.2,30.12,SSW,212,0.0,4.0,39,0.00,,---,0.00,VWS V14.01,2013-12-07 12:31:00,
2013-12-07 07:36:00,18.0,-5.1,30.12,SW,228,3.6,3.6,35,0.00,,---,0.00,VWS V14.01,2013-12-07 12:36:00,
2013-12-07 07:41:00,18.1,-5.5,30.12,WNW,299,3.1,3.1,34,0.00,,---,0.00,VWS V14.01,2013-12-07 12:41:00,
2013-12-07 07:47:00,18.1,-5.5,30.12,WNW,289,5.8,5.8,34,0.00,,---,0.00,VWS V14.01,2013-12-07 12:47:00,
2013-12-07 07:52:00,18.3,-6.0,30.12,SW,214,0.0,4.9,33,0.00,,---,0.00,VWS V14.01,2013-12-07 12:52:00,
2013-12-07 07:58:00,18.5,-5.2,30.27,SW,215,2.2,2.2,34,0.00,,---,0.00,VWS V14.01,2013-12-07 12:58:00,
2013-12-07 08:03:00,19.4,0.6,30.27,SW,225,2.7,3.1,43,0.00,,---,0.00,VWS V14.01,2013-12-07 13:03:00,
2013-12-07 08:08:00,18.9,-5.5,30.15,South,190,2.7,2.7,33,0.00,,---,0.00,VWS V14.01,2013-12-07 13:08:00,
2013-12-07 08:13:00,18.5,-5.8,30.15,SSW,192,3.6,4.0,33,0.00,,---,0.00,VWS V14.01,2013-12-07 13:13:00,
2013-12-07 08:19:00,18.1,-8.1,30.15,WSW,256,3.1,3.1,30,0.00,,---,0.00,VWS V14.01,2013-12-07 13:19:00,
2013-12-07 08:24:00,17.6,-6.6,30.24,WSW,242,2.7,2.7,33,0.00,,---,0.00,VWS V14.01,2013-12-07 13:24:00,
2013-12-07 08:29:00,17.6,-7.9,30.24,SW,228,2.2,2.2,31,0.00,,---,0.00,VWS V14.01,2013-12-07 13:29:00,
2013-12-07 08:34:00,17.6,-7.9,30.21,West,262,0.0,0.0,31,0.00,,---,0.00,VWS V14.01,2013-12-07 13:34:00,
2013-12-07 08:39:00,18.1,-5.5,30.21,SW,220,0.0,3.1,34,0.00,,---,0.00,VWS V14.01,2013-12-07 13:39:00,
2013-12-07 08:45:00,19.9,4.7,30.21,SSW,211,3.1,5.4,51,0.00,,---,0.00,VWS V14.01,2013-12-07 13:45:00,
2013-12-07 08:50:00,20.1,-4.4,30.21,SSW,212,0.0,0.0,33,0.00,,---,0.00,VWS V14.01,2013-12-07 13:50:00,
2013-12-07 08:55:00,19.9,-8.6,30.21,South,184,0.0,0.0,27,0.00,,---,0.00,VWS V14.01,2013-12-07 13:55:00,
2013-12-07 09:01:00,19.9,-8.6,30.21,SSW,212,0.0,0.0,27,0.00,,---,0.00,VWS V14.01,2013-12-07 14:01:00,
2013-12-07 09:06:00,20.1,-8.5,30.21,SW,220,0.0,0.0,27,0.00,,---,0.00,VWS V14.01,2013-12-07 14:06:00,
2013-12-07 09:11:00,20.1,-10.1,30.21,WSW,239,0.0,0.0,25,0.00,,---,0.00,VWS V14.01,2013-12-07 14:11:00,
2013-12-07 09:16:00,20.3,-9.9,30.21,ESE,123,5.8,5.8,25,0.00,,---,0.00,VWS V14.01,2013-12-07 14:16:00,
2013-12-07 09:22:00,20.1,-8.5,30.24,WSW,240,0.0,2.7,27,0.00,,---,0.00,VWS V14.01,2013-12-07 14:22:00,
2013-12-07 09:27:00,21.7,5.1,30.24,SW,232,2.2,3.6,48,0.00,,---,0.00,VWS V14.01,2013-12-07 14:27:00,
2013-12-07 09:33:00,21.9,-3.4,30.24,SW,225,3.6,3.6,32,0.00,,---,0.00,VWS V14.01,2013-12-07 14:33:00,
2013-12-07 09:38:00,21.4,-9.0,30.24,NNW,348,2.7,2.7,25,0.00,,---,0.00,VWS V14.01,2013-12-07 14:38:00,
2013-12-07 09:43:00,21.2,-9.1,30.24,West,260,2.7,4.0,25,0.00,,---,0.00,VWS V14.01,2013-12-07 14:43:00,
2013-12-07 09:48:00,20.7,-9.6,30.24,West,270,2.7,3.1,25,0.00,,---,0.00,VWS V14.01,2013-12-07 14:48:00,
2013-12-07 09:54:00,20.5,-12.3,30.24,West,268,5.8,5.8,22,0.00,,---,0.00,VWS V14.01,2013-12-07 14:54:00,
2013-12-07 09:59:00,20.8,-9.4,30.24,SW,226,3.1,3.6,25,0.00,,---,0.00,VWS V14.01,2013-12-07 14:59:00,
2013-12-07 10:04:00,21.4,-7.4,30.24,WSW,246,2.2,2.2,27,0.00,,---,0.00,VWS V14.01,2013-12-07 15:04:00,
2013-12-07 10:09:00,21.6,-8.8,30.24,WSW,243,2.7,3.1,25,0.00,,---,0.00,VWS V14.01,2013-12-07 15:09:00,
2013-12-07 10:15:00,21.6,-8.8,30.24,West,275,2.7,2.7,25,0.00,,---,0.00,VWS V14.01,2013-12-07 15:15:00,
2013-12-07 10:20:00,21.9,-6.9,30.24,SSW,198,2.7,2.7,27,0.00,,---,0.00,VWS V14.01,2013-12-07 15:20:00,
2013-12-07 10:26:00,21.7,-8.6,30.24,SW,220,2.7,2.7,25,0.00,,---,0.00,VWS V14.01,2013-12-07 15:26:00,
2013-12-07 10:31:00,22.8,-6.1,30.24,SSE,150,2.7,4.9,27,0.00,,---,0.00,VWS V14.01,2013-12-07 15:31:00,
2013-12-07 10:37:00,23.0,-7.6,30.24,WSW,247,3.1,4.0,25,0.00,,---,0.00,VWS V14.01,2013-12-07 15:37:00,
2013-12-07 10:42:00,23.0,-7.6,30.24,SW,217,2.7,2.7,25,0.00,,---,0.00,VWS V14.01,2013-12-07 15:42:00,
2013-12-07 10:47:00,22.1,-8.3,30.27,SSW,207,2.7,3.1,25,0.00,,---,0.00,VWS V14.01,2013-12-07 15:47:00,
2013-12-07 10:53:00,22.3,-8.2,30.27,SW,216,0.0,0.0,25,0.00,,---,0.00,VWS V14.01,2013-12-07 15:53:00,
2013-12-07 10:58:00,22.5,-8.0,30.27,NW,308,0.0,2.2,25,0.00,,---,0.00,VWS V14.01,2013-12-07 15:58:00,
2013-12-07 11:04:00,23.2,-4.3,30.24,SSW,196,2.2,2.2,29,0.00,,---,0.00,VWS V14.01,2013-12-07 16:04:00,
2013-12-07 11:09:00,23.2,-1.0,30.27,NNW,340,2.7,3.1,34,0.00,,---,0.00,VWS V14.01,2013-12-07 16:09:00,
2013-12-07 11:15:00,22.8,-6.1,30.27,SW,219,0.0,0.0,27,0.00,,---,0.00,VWS V14.01,2013-12-07 16:15:00,
2013-12-07 11:21:00,23.4,-5.7,30.27,South,187,5.4,5.4,27,0.00,,---,0.00,VWS V14.01,2013-12-07 16:21:00,
2013-12-07 11:26:00,23.4,-5.7,30.27,SW,221,0.0,2.7,27,0.00,,---,0.00,VWS V14.01,2013-12-07 16:26:00,
2013-12-07 11:31:00,24.8,-6.9,30.27,West,278,3.1,3.1,24,0.00,,---,0.00,VWS V14.01,2013-12-07 16:31:00,
2013-12-07 11:36:00,25.3,-6.4,30.27,SSW,202,3.1,3.1,24,0.00,,---,0.00,VWS V14.01,2013-12-07 16:36:00,
2013-12-07 11:42:00,25.2,-6.6,30.27,WNW,292,2.7,3.1,24,0.00,,---,0.00,VWS V14.01,2013-12-07 16:42:00,
2013-12-07 11:47:00,23.7,-9.6,30.27,NW,311,2.7,4.0,22,0.00,,---,0.00,VWS V14.01,2013-12-07 16:47:00,
2013-12-07 11:53:00,24.1,-1.5,30.27,West,261,4.9,4.9,32,0.00,,---,0.00,VWS V14.01,2013-12-07 16:53:00,
2013-12-07 11:58:00,24.8,-0.2,30.27,West,268,2.7,2.7,33,0.00,,---,0.00,VWS V14.01,2013-12-07 16:58:00,
2013-12-07 12:03:00,25.0,-5.1,30.27,SE,132,5.4,5.4,26,0.00,,---,0.00,VWS V14.01,2013-12-07 17:03:00,
2013-12-07 12:16:00,24.8,-6.9,30.27,SSW,213,4.0,6.3,24,0.00,,---,0.00,VWS V14.01,2013-12-07 17:16:00,
2013-12-07 12:22:00,24.6,-11.8,30.27,SSW,209,0.0,2.2,19,0.00,,---,0.00,VWS V14.01,2013-12-07 17:22:00,
2013-12-07 12:27:00,24.8,-8.6,30.27,WNW,287,2.7,3.1,22,0.00,,---,0.00,VWS V14.01,2013-12-07 17:27:00,
2013-12-07 12:32:00,24.8,-11.6,30.27,SW,235,2.7,4.9,19,0.00,,---,0.00,VWS V14.01,2013-12-07 17:32:00,
2013-12-07 12:38:00,25.3,-9.1,30.15,NNW,340,3.1,3.6,21,0.00,,---,0.00,VWS V14.01,2013-12-07 17:38:00,
2013-12-07 12:43:00,25.7,-10.9,30.15,WNW,286,2.7,3.6,19,0.00,,---,0.00,VWS V14.01,2013-12-07 17:43:00,
2013-12-07 12:48:00,25.2,-11.3,30.15,WSW,248,4.0,5.8,19,0.00,,---,0.00,VWS V14.01,2013-12-07 17:48:00,
2013-12-07 12:53:00,26.1,-8.5,30.15,South,184,4.0,4.0,21,0.00,,---,0.00,VWS V14.01,2013-12-07 17:53:00,
2013-12-07 12:59:00,25.7,-10.9,30.15,ESE,115,3.6,3.6,19,0.00,,---,0.00,VWS V14.01,2013-12-07 17:59:00,
2013-12-07 13:04:00,25.9,-10.7,30.15,SSE,155,3.1,5.4,19,0.00,,---,0.00,VWS V14.01,2013-12-07 18:04:00,
2013-12-07 13:10:00,26.2,-10.4,30.15,SSE,154,2.7,4.9,19,0.00,,---,0.00,VWS V14.01,2013-12-07 18:10:00,
2013-12-07 13:16:00,27.0,-10.9,30.15,West,266,0.0,2.7,18,0.00,,---,0.00,VWS V14.01,2013-12-07 18:16:00,
2013-12-07 13:21:00,27.1,-5.7,30.15,SW,225,5.8,5.8,23,0.00,,---,0.00,VWS V14.01,2013-12-07 18:21:00,
2013-12-07 13:27:00,26.1,-8.5,30.15,WSW,250,2.7,6.7,21,0.00,,---,0.00,VWS V14.01,2013-12-07 18:27:00,
2013-12-07 13:32:00,26.1,-10.5,30.15,WNW,282,2.7,4.0,19,0.00,,---,0.00,VWS V14.01,2013-12-07 18:32:00,
2013-12-07 13:37:00,25.7,-10.9,30.15,SW,225,3.6,3.6,19,0.00,,---,0.00,VWS V14.01,2013-12-07 18:37:00,
2013-12-07 13:42:00,25.5,-11.0,30.15,West,270,2.7,3.1,19,0.00,,---,0.00,VWS V14.01,2013-12-07 18:42:00,
2013-12-07 13:48:00,25.7,-10.9,30.15,SE,140,5.4,5.4,19,0.00,,---,0.00,VWS V14.01,2013-12-07 18:48:00,
2013-12-07 13:53:00,25.2,-11.3,30.15,WSW,241,4.0,5.8,19,0.00,,---,0.00,VWS V14.01,2013-12-07 18:53:00,
2013-12-07 13:59:00,25.3,-11.1,30.15,SW,221,3.1,3.1,19,0.00,,---,0.00,VWS V14.01,2013-12-07 18:59:00,
2013-12-07 14:04:00,25.5,-11.0,30.15,SSW,200,4.0,4.0,19,0.00,,---,0.00,VWS V14.01,2013-12-07 19:04:00,
2013-12-07 14:10:00,26.1,-10.5,30.15,South,190,0.0,0.0,19,0.00,,---,0.00,VWS V14.01,2013-12-07 19:10:00,
2013-12-07 14:15:00,26.1,-10.5,30.15,NW,320,2.2,2.7,19,0.00,,---,0.00,VWS V14.01,2013-12-07 19:15:00,
2013-12-07 14:20:00,25.3,-11.1,30.15,SW,233,2.7,2.7,19,0.00,,---,0.00,VWS V14.01,2013-12-07 19:20:00,
2013-12-07 14:26:00,25.2,-11.3,30.15,WNW,295,4.0,4.0,19,0.00,,---,0.00,VWS V14.01,2013-12-07 19:26:00,
2013-12-07 14:31:00,25.5,-11.0,30.15,SW,217,2.2,3.6,19,0.00,,---,0.00,VWS V14.01,2013-12-07 19:31:00,
2013-12-07 14:37:00,26.1,-10.5,30.15,South,191,3.1,3.1,19,0.00,,---,0.00,VWS V14.01,2013-12-07 19:37:00,
2013-12-07 14:42:00,25.5,-14.4,30.15,SSW,200,3.6,5.8,16,0.00,,---,0.00,VWS V14.01,2013-12-07 19:42:00,
2013-12-07 14:47:00,25.3,-11.1,30.15,SW,229,2.2,2.2,19,0.00,,---,0.00,VWS V14.01,2013-12-07 19:47:00,
2013-12-07 14:52:00,25.5,-14.4,30.15,South,171,2.7,3.1,16,0.00,,---,0.00,VWS V14.01,2013-12-07 19:52:00,
2013-12-07 14:58:00,25.2,-11.3,30.15,NW,304,2.2,2.7,19,0.00,,---,0.00,VWS V14.01,2013-12-07 19:58:00,
2013-12-07 15:03:00,25.5,-11.0,30.15,WNW,300,3.1,3.1,19,0.00,,---,0.00,VWS V14.01,2013-12-07 20:03:00,
2013-12-07 15:09:00,25.3,-11.1,30.15,West,259,4.0,4.0,19,0.00,,---,0.00,VWS V14.01,2013-12-07 20:09:00,
2013-12-07 15:15:00,25.3,-11.1,30.15,WSW,248,3.6,3.6,19,0.00,,---,0.00,VWS V14.01,2013-12-07 20:15:00,
2013-12-07 15:20:00,25.0,-14.9,30.12,WSW,250,2.2,6.3,16,0.00,,---,0.00,VWS V14.01,2013-12-07 20:20:00,
2013-12-07 15:26:00,25.0,-11.4,30.12,South,176,3.1,3.1,19,0.00,,---,0.00,VWS V14.01,2013-12-07 20:26:00,
2013-12-07 15:31:00,24.8,-13.8,30.12,NNW,331,0.0,4.5,17,0.00,,---,0.00,VWS V14.01,2013-12-07 20:31:00,
2013-12-07 15:37:00,24.6,-14.0,30.15,SW,232,0.0,0.0,17,0.00,,---,0.00,VWS V14.01,2013-12-07 20:37:00,
2013-12-07 15:42:00,24.6,-14.0,30.15,SW,215,0.0,2.7,17,0.00,,---,0.00,VWS V14.01,2013-12-07 20:42:00,
2013-12-07 15:48:00,24.6,-14.0,30.15,NW,320,3.1,3.1,17,0.00,,---,0.00,VWS V14.01,2013-12-07 20:48:00,
2013-12-07 15:53:00,24.3,-14.3,30.15,SSW,199,0.0,2.7,17,0.00,,---,0.00,VWS V14.01,2013-12-07 20:53:00,
2013-12-07 15:58:00,23.9,-14.6,30.15,SW,218,2.7,3.1,17,0.00,,---,0.00,VWS V14.01,2013-12-07 20:58:00,
2013-12-07 16:04:00,23.7,-12.5,30.15,SW,215,3.1,3.1,19,0.00,,---,0.00,VWS V14.01,2013-12-07 21:04:00,
2013-12-07 16:09:00,24.6,6.3,30.15,SSW,203,0.0,0.0,45,0.00,,---,0.00,VWS V14.01,2013-12-07 21:09:00,
2013-12-07 16:15:00,24.1,-12.2,30.15,WNW,295,0.0,0.0,19,0.00,,---,0.00,VWS V14.01,2013-12-07 21:15:00,
2013-12-07 16:20:00,23.5,-12.6,30.15,SW,220,0.0,2.7,19,0.00,,---,0.00,VWS V14.01,2013-12-07 21:20:00,
2013-12-07 16:26:00,23.2,-12.9,30.15,SW,222,0.0,0.0,19,0.00,,---,0.00,VWS V14.01,2013-12-07 21:26:00,
2013-12-07 16:32:00,22.8,-12.2,30.15,West,272,2.2,3.1,20,0.00,,---,0.00,VWS V14.01,2013-12-07 21:32:00,
2013-12-07 16:37:00,22.5,-12.5,30.15,SW,214,4.0,4.0,20,0.00,,---,0.00,VWS V14.01,2013-12-07 21:37:00,
2013-12-07 16:43:00,22.5,-12.5,30.15,West,264,0.0,2.7,20,0.00,,---,0.00,VWS V14.01,2013-12-07 21:43:00,
2013-12-07 16:48:00,22.8,-0.1,30.15,WNW,298,0.0,3.1,36,0.00,,---,0.00,VWS V14.01,2013-12-07 21:48:00,
2013-12-07 16:54:00,23.7,6.0,30.15,South,185,0.0,2.2,46,0.00,,---,0.00,VWS V14.01,2013-12-07 21:54:00,
2013-12-07 16:59:00,25.7,13.4,30.15,South,185,0.0,0.0,59,0.00,,---,0.00,VWS V14.01,2013-12-07 21:59:00,
2013-12-07 17:05:00,22.8,-10.3,30.15,SSE,165,0.0,0.0,22,0.00,,---,0.00,VWS V14.01,2013-12-07 22:05:00,
2013-12-07 17:11:00,21.9,-11.1,30.15,SSW,199,0.0,0.0,22,0.00,,---,0.00,VWS V14.01,2013-12-07 22:11:00,
2013-12-07 17:16:00,21.4,-11.5,30.15,SSW,199,0.0,0.0,22,0.00,,---,0.00,VWS V14.01,2013-12-07 22:16:00,
2013-12-07 17:22:00,21.0,-9.3,30.15,West,279,0.0,0.0,25,0.00,,---,0.00,VWS V14.01,2013-12-07 22:22:00,
2013-12-07 17:27:00,20.8,-12.0,30.15,West,278,0.0,2.2,22,0.00,,---,0.00,VWS V14.01,2013-12-07 22:27:00,
2013-12-07 17:32:00,20.5,-12.3,30.15,West,279,0.0,0.0,22,0.00,,---,0.00,VWS V14.01,2013-12-07 22:32:00,
2013-12-07 17:37:00,20.3,-12.5,30.18,West,279,0.0,0.0,22,0.00,,---,0.00,VWS V14.01,2013-12-07 22:37:00,
2013-12-07 17:43:00,20.1,-12.6,30.18,West,278,0.0,0.0,22,0.00,,---,0.00,VWS V14.01,2013-12-07 22:43:00,
2013-12-07 17:49:00,19.9,-10.2,30.18,West,278,0.0,0.0,25,0.00,,---,0.00,VWS V14.01,2013-12-07 22:49:00,
2013-12-07 17:54:00,19.9,-6.5,30.18,West,278,0.0,0.0,30,0.00,,---,0.00,VWS V14.01,2013-12-07 22:54:00,
2013-12-07 18:00:00,19.6,-10.5,30.18,West,278,0.0,0.0,25,0.00,,---,0.00,VWS V14.01,2013-12-07 23:00:00,
2013-12-07 18:05:00,19.2,-10.8,30.18,WSW,256,0.0,0.0,25,0.00,,---,0.00,VWS V14.01,2013-12-07 23:05:00,
2013-12-07 18:10:00,18.7,-11.3,30.18,WSW,256,0.0,0.0,25,0.00,,---,0.00,VWS V14.01,2013-12-07 23:10:00,
2013-12-07 18:15:00,18.3,-11.6,30.18,WSW,256,0.0,0.0,25,0.00,,---,0.00,VWS V14.01,2013-12-07 23:15:00,
2013-12-07 18:21:00,17.8,-12.1,30.18,WSW,256,0.0,0.0,25,0.00,,---,0.00,VWS V14.01,2013-12-07 23:21:00,
2013-12-07 18:26:00,17.6,-9.9,30.18,WSW,256,0.0,0.0,28,0.00,,---,0.00,VWS V14.01,2013-12-07 23:26:00,
2013-12-07 18:32:00,18.1,-3.7,30.18,WSW,256,0.0,0.0,37,0.00,,---,0.00,VWS V14.01,2013-12-07 23:32:00,
2013-12-07 18:37:00,17.6,-4.2,30.18,WSW,256,0.0,0.0,37,0.00,,---,0.00,VWS V14.01,2013-12-07 23:37:00,
2013-12-07 18:43:00,17.1,-5.9,30.18,WSW,256,0.0,0.0,35,0.00,,---,0.00,VWS V14.01,2013-12-07 23:43:00,
2013-12-07 18:48:00,16.7,-6.2,30.18,WSW,256,0.0,0.0,35,0.00,,---,0.00,VWS V14.01,2013-12-07 23:48:00,
2013-12-07 18:53:00,16.3,-7.1,30.18,WSW,256,0.0,0.0,34,0.00,,---,0.00,VWS V14.01,2013-12-07 23:53:00,
2013-12-07 18:58:00,16.2,-7.9,30.18,WSW,256,0.0,0.0,33,0.00,,---,0.00,VWS V14.01,2013-12-07 23:58:00,
2013-12-07 19:04:00,16.2,-7.3,30.18,WNW,295,0.0,0.0,34,0.00,,---,0.00,VWS V14.01,2013-12-08 00:04:00,
2013-12-07 19:09:00,16.3,-5.9,30.18,WNW,295,0.0,0.0,36,0.00,,---,0.00,VWS V14.01,2013-12-08 00:09:00,
2013-12-07 19:15:00,18.9,5.8,30.18,WNW,295,0.0,0.0,56,0.00,,---,0.00,VWS V14.01,2013-12-08 00:15:00,
2013-12-07 19:21:00,19.4,8.9,30.21,WNW,295,0.0,0.0,63,0.00,,---,0.00,VWS V14.01,2013-12-08 00:21:00,
2013-12-07 19:26:00,19.2,10.7,30.21,WNW,295,0.0,0.0,69,0.00,,---,0.00,VWS V14.01,2013-12-08 00:26:00,
2013-12-07 19:32:00,17.2,5.4,30.21,WNW,295,0.0,0.0,59,0.00,,---,0.00,VWS V14.01,2013-12-08 00:32:00,
2013-12-07 19:37:00,16.5,4.3,30.18,WNW,295,0.0,0.0,58,0.00,,---,0.00,VWS V14.01,2013-12-08 00:37:00,
2013-12-07 19:42:00,15.8,2.9,30.18,WNW,295,0.0,0.0,56,0.00,,---,0.00,VWS V14.01,2013-12-08 00:42:00,
2013-12-07 19:48:00,15.3,0.8,30.18,WNW,295,0.0,0.0,52,0.00,,---,0.00,VWS V14.01,2013-12-08 00:48:00,
2013-12-07 19:53:00,15.3,-3.7,30.21,West,267,2.7,2.7,42,0.00,,---,0.00,VWS V14.01,2013-12-08 00:53:00,
2013-12-07 19:59:00,15.4,-4.6,30.21,West,267,0.0,0.0,40,0.00,,---,0.00,VWS V14.01,2013-12-08 00:59:00,
2013-12-07 20:04:00,15.6,-4.9,30.18,West,278,0.0,0.0,39,0.00,,---,0.00,VWS V14.01,2013-12-08 01:04:00,
2013-12-07 20:10:00,15.8,-4.8,30.18,SW,229,0.0,0.0,39,0.00,,---,0.00,VWS V14.01,2013-12-08 01:10:00,
2013-12-07 20:16:00,16.0,-5.1,30.18,SW,229,0.0,0.0,38,0.00,,---,0.00,VWS V14.01,2013-12-08 01:16:00,
2013-12-07 20:21:00,16.2,-6.1,30.21,SW,229,0.0,0.0,36,0.00,,---,0.00,VWS V14.01,2013-12-08 01:21:00,
2013-12-07 20:27:00,19.4,11.6,30.21,WSW,240,0.0,2.7,71,0.00,,---,0.00,VWS V14.01,2013-12-08 01:27:00,
2013-12-07 20:32:00,19.8,14.9,30.21,WSW,240,0.0,0.0,81,0.00,,---,0.00,VWS V14.01,2013-12-08 01:32:00,
2013-12-07 20:38:00,21.2,17.7,30.18,WSW,240,0.0,0.0,86,0.00,,---,0.00,VWS V14.01,2013-12-08 01:38:00,
2013-12-07 20:44:00,18.1,10.0,30.18,SW,233,0.0,0.0,70,0.00,,---,0.00,VWS V14.01,2013-12-08 01:44:00,
2013-12-07 20:49:00,16.7,2.1,30.21,SW,232,0.0,0.0,52,0.00,,---,0.00,VWS V14.01,2013-12-08 01:49:00,
2013-12-07 20:54:00,16.2,-5.5,30.21,SSW,210,0.0,0.0,37,0.00,,---,0.00,VWS V14.01,2013-12-08 01:54:00,
2013-12-07 20:59:00,16.2,-6.1,30.21,SW,217,0.0,0.0,36,0.00,,---,0.00,VWS V14.01,2013-12-08 01:59:00,
2013-12-07 21:05:00,15.8,-6.4,30.21,SW,217,0.0,0.0,36,0.00,,---,0.00,VWS V14.01,2013-12-08 02:05:00,
2013-12-07 21:10:00,16.0,-6.2,30.21,SW,217,0.0,0.0,36,0.00,,---,0.00,VWS V14.01,2013-12-08 02:10:00,
2013-12-07 21:16:00,16.0,-6.8,30.21,SW,227,0.0,0.0,35,0.00,,---,0.00,VWS V14.01,2013-12-08 02:16:00,
2013-12-07 21:21:00,15.6,-6.6,30.21,SW,227,0.0,0.0,36,0.00,,---,0.00,VWS V14.01,2013-12-08 02:21:00,
2013-12-07 21:27:00,15.3,-6.3,30.21,SW,227,0.0,0.0,37,0.00,,---,0.00,VWS V14.01,2013-12-08 02:27:00,
2013-12-07 21:32:00,14.9,-6.7,30.21,SW,227,0.0,0.0,37,0.00,,---,0.00,VWS V14.01,2013-12-08 02:32:00,
2013-12-07 21:38:00,14.4,-7.1,30.18,SW,227,2.2,4.9,37,0.00,,---,0.00,VWS V14.01,2013-12-08 02:38:00,
2013-12-07 21:44:00,14.4,-6.6,30.18,SW,227,0.0,0.0,38,0.00,,---,0.00,VWS V14.01,2013-12-08 02:44:00,
2013-12-07 21:49:00,17.6,6.8,30.18,SW,227,0.0,0.0,62,0.00,,---,0.00,VWS V14.01,2013-12-08 02:49:00,
2013-12-07 21:55:00,17.6,12.2,30.18,SW,224,0.0,0.0,79,0.00,,---,0.00,VWS V14.01,2013-12-08 02:55:00,
2013-12-07 22:01:00,15.6,7.6,30.18,SW,222,0.0,0.0,70,0.00,,---,0.00,VWS V14.01,2013-12-08 03:01:00,
2013-12-07 22:06:00,14.9,3.9,30.21,WNW,286,0.0,0.0,61,0.00,,---,0.00,VWS V14.01,2013-12-08 03:06:00,
2013-12-07 22:11:00,14.2,1.8,30.21,WNW,286,0.0,0.0,57,0.00,,---,0.00,VWS V14.01,2013-12-08 03:11:00,
2013-12-07 22:16:00,13.8,1.0,30.21,WNW,286,0.0,0.0,56,0.00,,---,0.00,VWS V14.01,2013-12-08 03:16:00,
2013-12-07 22:22:00,13.3,0.5,30.21,WNW,286,0.0,0.0,56,0.00,,---,0.00,VWS V14.01,2013-12-08 03:22:00,
2013-12-07 22:27:00,13.1,0.4,30.21,WNW,286,0.0,0.0,56,0.00,,---,0.00,VWS V14.01,2013-12-08 03:27:00,
2013-12-07 22:33:00,14.7,1.5,30.21,WNW,286,0.0,0.0,55,0.00,,---,0.00,VWS V14.01,2013-12-08 03:33:00,
2013-12-07 22:38:00,13.8,0.3,30.21,WNW,286,0.0,0.0,54,0.00,,---,0.00,VWS V14.01,2013-12-08 03:38:00,
2013-12-07 22:44:00,12.7,-0.8,30.21,WNW,286,0.0,0.0,54,0.00,,---,0.00,VWS V14.01,2013-12-08 03:44:00,
2013-12-07 22:50:00,12.2,-1.3,30.18,WNW,286,0.0,0.0,54,0.00,,---,0.00,VWS V14.01,2013-12-08 03:50:00,
2013-12-07 22:55:00,12.0,-1.4,30.18,WNW,286,0.0,0.0,54,0.00,,---,0.00,VWS V14.01,2013-12-08 03:55:00,
2013-12-07 23:00:00,11.7,-1.8,30.18,WNW,286,0.0,0.0,54,0.00,,---,0.00,VWS V14.01,2013-12-08 04:00:00,
2013-12-07 23:05:00,11.3,-2.1,30.21,WNW,286,0.0,0.0,54,0.00,,---,0.00,VWS V14.01,2013-12-08 04:05:00,
2013-12-07 23:10:00,11.3,-2.1,30.21,WNW,286,0.0,0.0,54,0.00,,---,0.00,VWS V14.01,2013-12-08 04:10:00,
2013-12-07 23:16:00,12.0,-1.4,30.21,WNW,286,0.0,0.0,54,0.00,,---,0.00,VWS V14.01,2013-12-08 04:16:00,
2013-12-07 23:22:00,11.5,-1.9,30.21,WNW,286,0.0,0.0,54,0.00,,---,0.00,VWS V14.01,2013-12-08 04:22:00,
2013-12-07 23:27:00,11.3,-2.1,30.21,WNW,286,0.0,0.0,54,0.00,,---,0.00,VWS V14.01,2013-12-08 04:27:00,
2013-12-07 23:32:00,11.1,-2.3,30.21,WNW,286,0.0,0.0,54,0.00,,---,0.00,VWS V14.01,2013-12-08 04:32:00,
2013-12-07 23:37:00,10.9,-2.4,30.18,WNW,286,0.0,0.0,54,0.00,,---,0.00,VWS V14.01,2013-12-08 04:37:00,
2013-12-07 23:43:00,10.8,-2.6,30.18,WNW,286,0.0,0.0,54,0.00,,---,0.00,VWS V14.01,2013-12-08 04:43:00,
2013-12-07 23:48:00,11.7,-1.8,30.18,WNW,286,0.0,0.0,54,0.00,,---,0.00,VWS V14.01,2013-12-08 04:48:00,
2013-12-07 23:54:00,11.7,-1.8,30.18,WNW,286,0.0,0.0,54,0.00,,---,0.00,VWS V14.01,2013-12-08 04:54:00,